sensor_id;sensor_type;location;lat;lon;timestamp;temperature;humidity
59307;DHT22;47983;53.016;-2.260;2023-04-01T00:00:59;9.70;99.90
59307;DHT22;47983;53.016;-2.260;2023-04-01T00:03:28;9.70;99.90
59307;DHT22;47983;53.016;-2.260;2023-04-01T00:05:58;9.70;99.90
59307;DHT22;47983;53.016;-2.260;2023-04-01T00:08:26;9.70;99.90
59307;DHT22;47983;53.016;-2.260;2023-04-01T00:10:57;9.70;99.90
59307;DHT22;47983;53.016;-2.260;2023-04-01T00:13:25;9.70;99.90
59307;DHT22;47983;53.016;-2.260;2023-04-01T00:15:55;9.60;99.90
59307;DHT22;47983;53.016;-2.260;2023-04-01T00:18:27;9.60;99.90
59307;DHT22;47983;53.016;-2.260;2023-04-01T00:20:54;9.60;99.90
59307;DHT22;47983;53.016;-2.260;2023-04-01T00:23:22;9.60;99.90
59307;DHT22;47983;53.016;-2.260;2023-04-01T00:25:50;9.60;99.90
59307;DHT22;47983;53.016;-2.260;2023-04-01T00:28:19;9.50;99.90
59307;DHT22;47983;53.016;-2.260;2023-04-01T00:30:47;9.50;99.90
59307;DHT22;47983;53.016;-2.260;2023-04-01T00:33:15;9.50;99.90
59307;DHT22;47983;53.016;-2.260;2023-04-01T00:35:44;9.50;99.90
59307;DHT22;47983;53.016;-2.260;2023-04-01T00:38:12;9.50;99.90
59307;DHT22;47983;53.016;-2.260;2023-04-01T00:40:42;9.50;99.90
59307;DHT22;47983;53.016;-2.260;2023-04-01T00:43:15;9.50;99.90
59307;DHT22;47983;53.016;-2.260;2023-04-01T00:45:47;9.40;99.90
59307;DHT22;47983;53.016;-2.260;2023-04-01T00:48:18;9.40;99.90
59307;DHT22;47983;53.016;-2.260;2023-04-01T00:50:52;9.40;99.90
59307;DHT22;47983;53.016;-2.260;2023-04-01T00:53:21;9.40;99.90
59307;DHT22;47983;53.016;-2.260;2023-04-01T00:55:56;9.40;99.90
59307;DHT22;47983;53.016;-2.260;2023-04-01T00:58:31;9.40;99.90
59307;DHT22;47983;53.016;-2.260;2023-04-01T01:01:00;9.30;99.90
59307;DHT22;47983;53.016;-2.260;2023-04-01T01:03:29;9.30;99.90
59307;DHT22;47983;53.016;-2.260;2023-04-01T01:31:37;9.20;99.90
59307;DHT22;47983;53.016;-2.260;2023-04-01T01:36:49;9.20;99.90
59307;DHT22;47983;53.016;-2.260;2023-04-01T01:39:21;9.20;99.90
59307;DHT22;47983;53.016;-2.260;2023-04-01T01:42:01;9.10;99.90
59307;DHT22;47983;53.016;-2.260;2023-04-01T01:44:30;9.10;99.90
59307;DHT22;47983;53.016;-2.260;2023-04-01T01:47:00;9.10;99.90
59307;DHT22;47983;53.016;-2.260;2023-04-01T01:49:29;9.00;99.90
59307;DHT22;47983;53.016;-2.260;2023-04-01T01:51:59;9.10;99.90
59307;DHT22;47983;53.016;-2.260;2023-04-01T01:54:27;9.00;99.90
59307;DHT22;47983;53.016;-2.260;2023-04-01T01:57:09;9.00;99.90
59307;DHT22;47983;53.016;-2.260;2023-04-01T01:59:42;9.00;99.90
59307;DHT22;47983;53.016;-2.260;2023-04-01T02:02:17;9.00;99.90
59307;DHT22;47983;53.016;-2.260;2023-04-01T02:04:46;9.00;99.90
59307;DHT22;47983;53.016;-2.260;2023-04-01T02:07:25;8.90;99.90
59307;DHT22;47983;53.016;-2.260;2023-04-01T02:09:57;8.90;99.90
59307;DHT22;47983;53.016;-2.260;2023-04-01T02:12:26;8.90;99.90
59307;DHT22;47983;53.016;-2.260;2023-04-01T02:15:03;8.90;99.90
59307;DHT22;47983;53.016;-2.260;2023-04-01T02:17:34;8.90;99.90
59307;DHT22;47983;53.016;-2.260;2023-04-01T02:20:11;8.90;99.90
59307;DHT22;47983;53.016;-2.260;2023-04-01T02:22:52;8.90;99.90
59307;DHT22;47983;53.016;-2.260;2023-04-01T02:25:26;8.90;99.90
59307;DHT22;47983;53.016;-2.260;2023-04-01T02:27:56;8.80;99.90
59307;DHT22;47983;53.016;-2.260;2023-04-01T02:30:27;8.80;99.90
59307;DHT22;47983;53.016;-2.260;2023-04-01T02:32:57;8.80;99.90
59307;DHT22;47983;53.016;-2.260;2023-04-01T02:35:26;8.70;99.90
59307;DHT22;47983;53.016;-2.260;2023-04-01T02:37:54;8.80;99.90
59307;DHT22;47983;53.016;-2.260;2023-04-01T02:40:22;8.70;99.90
59307;DHT22;47983;53.016;-2.260;2023-04-01T02:42:52;8.70;99.90
59307;DHT22;47983;53.016;-2.260;2023-04-01T02:45:19;8.70;99.90
59307;DHT22;47983;53.016;-2.260;2023-04-01T02:47:47;8.70;99.90
59307;DHT22;47983;53.016;-2.260;2023-04-01T02:50:15;8.60;99.90
59307;DHT22;47983;53.016;-2.260;2023-04-01T02:52:43;8.70;99.90
59307;DHT22;47983;53.016;-2.260;2023-04-01T02:55:10;8.60;99.90
59307;DHT22;47983;53.016;-2.260;2023-04-01T02:57:38;8.60;99.90
59307;DHT22;47983;53.016;-2.260;2023-04-01T03:00:06;8.60;99.90
59307;DHT22;47983;53.016;-2.260;2023-04-01T03:02:39;8.60;99.90
59307;DHT22;47983;53.016;-2.260;2023-04-01T03:05:07;8.60;99.90
59307;DHT22;47983;53.016;-2.260;2023-04-01T03:07:34;8.50;99.90
59307;DHT22;47983;53.016;-2.260;2023-04-01T03:10:02;8.50;99.90
59307;DHT22;47983;53.016;-2.260;2023-04-01T03:14:58;8.50;99.90
59307;DHT22;47983;53.016;-2.260;2023-04-01T03:17:39;8.50;99.90
59307;DHT22;47983;53.016;-2.260;2023-04-01T03:20:08;8.50;99.90
59307;DHT22;47983;53.016;-2.260;2023-04-01T03:22:38;8.40;99.90
59307;DHT22;47983;53.016;-2.260;2023-04-01T03:25:09;8.40;99.90
59307;DHT22;47983;53.016;-2.260;2023-04-01T03:27:38;8.40;99.90
59307;DHT22;47983;53.016;-2.260;2023-04-01T03:30:08;8.30;99.90
59307;DHT22;47983;53.016;-2.260;2023-04-01T03:32:45;8.20;99.90
59307;DHT22;47983;53.016;-2.260;2023-04-01T03:35:13;8.20;99.90
59307;DHT22;47983;53.016;-2.260;2023-04-01T03:37:42;8.10;99.90
59307;DHT22;47983;53.016;-2.260;2023-04-01T03:40:10;8.00;99.90
59307;DHT22;47983;53.016;-2.260;2023-04-01T03:42:38;8.00;99.90
59307;DHT22;47983;53.016;-2.260;2023-04-01T03:45:06;7.90;99.90
59307;DHT22;47983;53.016;-2.260;2023-04-01T03:47:33;7.90;99.90
59307;DHT22;47983;53.016;-2.260;2023-04-01T03:50:02;7.80;99.90
59307;DHT22;47983;53.016;-2.260;2023-04-01T03:52:29;7.70;99.90
59307;DHT22;47983;53.016;-2.260;2023-04-01T03:54:57;7.50;99.90
59307;DHT22;47983;53.016;-2.260;2023-04-01T03:57:25;7.50;99.90
59307;DHT22;47983;53.016;-2.260;2023-04-01T03:59:56;7.30;99.90
59307;DHT22;47983;53.016;-2.260;2023-04-01T04:02:24;7.40;99.90
59307;DHT22;47983;53.016;-2.260;2023-04-01T04:04:52;7.40;99.90
59307;DHT22;47983;53.016;-2.260;2023-04-01T04:07:20;7.40;99.90
59307;DHT22;47983;53.016;-2.260;2023-04-01T04:10:04;7.30;99.90
59307;DHT22;47983;53.016;-2.260;2023-04-01T04:12:32;7.30;99.90
59307;DHT22;47983;53.016;-2.260;2023-04-01T04:15:00;7.30;99.90
59307;DHT22;47983;53.016;-2.260;2023-04-01T04:17:28;7.30;99.90
59307;DHT22;47983;53.016;-2.260;2023-04-01T04:22:24;7.30;99.90
59307;DHT22;47983;53.016;-2.260;2023-04-01T04:24:52;7.30;99.90
59307;DHT22;47983;53.016;-2.260;2023-04-01T04:27:22;7.40;99.90
59307;DHT22;47983;53.016;-2.260;2023-04-01T04:30:03;7.40;99.90
59307;DHT22;47983;53.016;-2.260;2023-04-01T04:32:31;7.40;99.90
59307;DHT22;47983;53.016;-2.260;2023-04-01T04:34:59;7.40;99.90
59307;DHT22;47983;53.016;-2.260;2023-04-01T04:37:27;7.50;99.90
59307;DHT22;47983;53.016;-2.260;2023-04-01T04:39:55;7.50;99.90
59307;DHT22;47983;53.016;-2.260;2023-04-01T04:42:23;7.50;99.90
59307;DHT22;47983;53.016;-2.260;2023-04-01T04:44:58;7.50;99.90
59307;DHT22;47983;53.016;-2.260;2023-04-01T04:47:26;10.10;99.90
59307;DHT22;47983;53.016;-2.260;2023-04-01T04:49:53;7.60;99.90
59307;DHT22;47983;53.016;-2.260;2023-04-01T04:52:21;7.60;99.90
59307;DHT22;47983;53.016;-2.260;2023-04-01T04:54:49;7.60;99.90
59307;DHT22;47983;53.016;-2.260;2023-04-01T04:57:16;7.60;99.90
59307;DHT22;47983;53.016;-2.260;2023-04-01T04:59:51;7.60;99.90
59307;DHT22;47983;53.016;-2.260;2023-04-01T05:02:30;7.70;99.90
59307;DHT22;47983;53.016;-2.260;2023-04-01T05:04:58;7.70;99.90
59307;DHT22;47983;53.016;-2.260;2023-04-01T05:07:28;7.70;99.90
59307;DHT22;47983;53.016;-2.260;2023-04-01T05:09:56;7.70;99.90
59307;DHT22;47983;53.016;-2.260;2023-04-01T05:12:24;7.70;99.90
59307;DHT22;47983;53.016;-2.260;2023-04-01T05:15:02;7.80;99.90
59307;DHT22;47983;53.016;-2.260;2023-04-01T05:20:03;7.80;99.90
59307;DHT22;47983;53.016;-2.260;2023-04-01T05:22:31;7.80;99.90
59307;DHT22;47983;53.016;-2.260;2023-04-01T05:24:59;7.80;99.90
59307;DHT22;47983;53.016;-2.260;2023-04-01T05:27:28;7.80;99.90
59307;DHT22;47983;53.016;-2.260;2023-04-01T05:29:56;7.80;99.90
59307;DHT22;47983;53.016;-2.260;2023-04-01T05:32:59;7.80;99.90
59307;DHT22;47983;53.016;-2.260;2023-04-01T05:35:27;7.80;99.90
59307;DHT22;47983;53.016;-2.260;2023-04-01T05:37:56;7.90;99.90
59307;DHT22;47983;53.016;-2.260;2023-04-01T05:40:23;7.80;99.90
59307;DHT22;47983;53.016;-2.260;2023-04-01T05:42:53;7.90;99.90
59307;DHT22;47983;53.016;-2.260;2023-04-01T05:45:24;7.80;99.90
59307;DHT22;47983;53.016;-2.260;2023-04-01T05:48:10;7.90;99.90
59307;DHT22;47983;53.016;-2.260;2023-04-01T05:50:40;7.90;99.90
59307;DHT22;47983;53.016;-2.260;2023-04-01T05:53:10;7.90;99.90
59307;DHT22;47983;53.016;-2.260;2023-04-01T05:55:41;7.90;99.90
59307;DHT22;47983;53.016;-2.260;2023-04-01T05:58:09;7.90;99.90
59307;DHT22;47983;53.016;-2.260;2023-04-01T06:00:39;8.00;99.90
59307;DHT22;47983;53.016;-2.260;2023-04-01T06:03:08;8.00;99.90
59307;DHT22;47983;53.016;-2.260;2023-04-01T06:05:40;8.00;99.90
59307;DHT22;47983;53.016;-2.260;2023-04-01T06:08:15;8.00;99.90
59307;DHT22;47983;53.016;-2.260;2023-04-01T06:17:26;8.00;99.90
59307;DHT22;47983;53.016;-2.260;2023-04-01T06:20:26;8.00;99.90
59307;DHT22;47983;53.016;-2.260;2023-04-01T06:32:01;8.00;99.90
59307;DHT22;47983;53.016;-2.260;2023-04-01T06:34:40;8.10;99.90
59307;DHT22;47983;53.016;-2.260;2023-04-01T06:42:33;8.10;99.90
59307;DHT22;47983;53.016;-2.260;2023-04-01T06:51:31;8.00;99.90
59307;DHT22;47983;53.016;-2.260;2023-04-01T06:54:40;8.00;99.90
59307;DHT22;47983;53.016;-2.260;2023-04-01T06:57:49;8.00;99.90
59307;DHT22;47983;53.016;-2.260;2023-04-01T07:00:31;8.00;99.90
59307;DHT22;47983;53.016;-2.260;2023-04-01T07:05:53;8.00;99.90
59307;DHT22;47983;53.016;-2.260;2023-04-01T07:08:29;8.00;99.90
59307;DHT22;47983;53.016;-2.260;2023-04-01T07:11:03;8.00;99.90
59307;DHT22;47983;53.016;-2.260;2023-04-01T07:19:05;8.00;99.90
59307;DHT22;47983;53.016;-2.260;2023-04-01T07:25:11;8.00;99.90
59307;DHT22;47983;53.016;-2.260;2023-04-01T07:27:42;8.00;99.90
59307;DHT22;47983;53.016;-2.260;2023-04-01T07:30:22;8.00;99.90
59307;DHT22;47983;53.016;-2.260;2023-04-01T07:33:15;8.00;99.90
59307;DHT22;47983;53.016;-2.260;2023-04-01T07:35:58;8.00;99.90
59307;DHT22;47983;53.016;-2.260;2023-04-01T07:38:54;8.10;99.90
59307;DHT22;47983;53.016;-2.260;2023-04-01T07:55:14;8.40;99.90
59307;DHT22;47983;53.016;-2.260;2023-04-01T07:58:06;8.40;99.90
59307;DHT22;47983;53.016;-2.260;2023-04-01T08:00:50;8.40;99.90
59307;DHT22;47983;53.016;-2.260;2023-04-01T08:03:36;8.40;99.90
59307;DHT22;47983;53.016;-2.260;2023-04-01T08:06:33;8.40;99.90
59307;DHT22;47983;53.016;-2.260;2023-04-01T08:09:27;8.40;99.90
59307;DHT22;47983;53.016;-2.260;2023-04-01T08:20:48;8.50;99.90
59307;DHT22;47983;53.016;-2.260;2023-04-01T08:23:35;8.60;99.90
59307;DHT22;47983;53.016;-2.260;2023-04-01T08:29:09;8.80;99.90
59307;DHT22;47983;53.016;-2.260;2023-04-01T08:31:58;8.80;99.90
59307;DHT22;47983;53.016;-2.260;2023-04-01T08:34:34;8.90;99.90
59307;DHT22;47983;53.016;-2.260;2023-04-01T08:37:12;8.90;99.90
59307;DHT22;47983;53.016;-2.260;2023-04-01T08:39:49;8.90;99.90
59307;DHT22;47983;53.016;-2.260;2023-04-01T08:45:18;9.00;99.90
59307;DHT22;47983;53.016;-2.260;2023-04-01T08:48:07;9.10;99.90
59307;DHT22;47983;53.016;-2.260;2023-04-01T08:50:54;9.20;99.90
59307;DHT22;47983;53.016;-2.260;2023-04-01T08:56:36;9.40;99.90
59307;DHT22;47983;53.016;-2.260;2023-04-01T09:05:18;9.50;99.90
59307;DHT22;47983;53.016;-2.260;2023-04-01T09:23:16;9.80;99.90
59307;DHT22;47983;53.016;-2.260;2023-04-01T09:26:01;9.80;99.90
59307;DHT22;47983;53.016;-2.260;2023-04-01T09:43:56;10.10;99.90
59307;DHT22;47983;53.016;-2.260;2023-04-01T09:52:58;10.20;99.90
59307;DHT22;47983;53.016;-2.260;2023-04-01T10:16:01;11.20;99.90
59307;DHT22;47983;53.016;-2.260;2023-04-01T10:49:47;11.60;99.90
59307;DHT22;47983;53.016;-2.260;2023-04-01T10:55:37;11.90;99.90
59307;DHT22;47983;53.016;-2.260;2023-04-01T10:58:45;11.80;99.90
59307;DHT22;47983;53.016;-2.260;2023-04-01T11:31:04;11.70;99.90
59307;DHT22;47983;53.016;-2.260;2023-04-01T11:33:47;11.80;99.90
59307;DHT22;47983;53.016;-2.260;2023-04-01T11:36:25;11.90;99.90
59307;DHT22;47983;53.016;-2.260;2023-04-01T11:54:18;12.30;99.90
59307;DHT22;47983;53.016;-2.260;2023-04-01T12:00:12;12.30;99.90
59307;DHT22;47983;53.016;-2.260;2023-04-01T12:08:36;12.60;99.90
59307;DHT22;47983;53.016;-2.260;2023-04-01T12:11:17;13.10;99.90
59307;DHT22;47983;53.016;-2.260;2023-04-01T12:22:27;12.90;99.90
59307;DHT22;47983;53.016;-2.260;2023-04-01T12:38:43;11.70;99.90
59307;DHT22;47983;53.016;-2.260;2023-04-01T12:44:26;11.40;99.90
59307;DHT22;47983;53.016;-2.260;2023-04-01T13:20:26;11.50;99.90
59307;DHT22;47983;53.016;-2.260;2023-04-01T13:28:23;11.50;99.90
59307;DHT22;47983;53.016;-2.260;2023-04-01T13:31:03;11.50;99.90
59307;DHT22;47983;53.016;-2.260;2023-04-01T13:36:48;11.40;99.90
59307;DHT22;47983;53.016;-2.260;2023-04-01T13:42:21;11.20;99.90
59307;DHT22;47983;53.016;-2.260;2023-04-01T13:45:02;11.10;99.90
59307;DHT22;47983;53.016;-2.260;2023-04-01T13:51:04;10.80;99.90
59307;DHT22;47983;53.016;-2.260;2023-04-01T13:53:55;10.80;99.90
59307;DHT22;47983;53.016;-2.260;2023-04-01T13:57:51;10.90;99.90
59307;DHT22;47983;53.016;-2.260;2023-04-01T14:11:44;11.40;99.90
59307;DHT22;47983;53.016;-2.260;2023-04-01T14:37:31;11.80;99.90
59307;DHT22;47983;53.016;-2.260;2023-04-01T14:40:21;11.80;99.90
59307;DHT22;47983;53.016;-2.260;2023-04-01T14:43:08;11.70;99.90
59307;DHT22;47983;53.016;-2.260;2023-04-01T14:48:38;11.60;99.90
59307;DHT22;47983;53.016;-2.260;2023-04-01T14:56:47;11.50;99.90
59307;DHT22;47983;53.016;-2.260;2023-04-01T15:02:03;11.30;99.90
59307;DHT22;47983;53.016;-2.260;2023-04-01T15:07:40;11.10;99.90
59307;DHT22;47983;53.016;-2.260;2023-04-01T15:19:17;10.90;99.90
59307;DHT22;47983;53.016;-2.260;2023-04-01T15:35:50;10.80;99.90
59307;DHT22;47983;53.016;-2.260;2023-04-01T15:46:14;10.70;99.90
59307;DHT22;47983;53.016;-2.260;2023-04-01T15:52:23;10.70;99.90
59307;DHT22;47983;53.016;-2.260;2023-04-01T16:11:43;10.50;99.90
59307;DHT22;47983;53.016;-2.260;2023-04-01T16:14:39;10.50;99.90
59307;DHT22;47983;53.016;-2.260;2023-04-01T16:30:39;10.30;99.90
59307;DHT22;47983;53.016;-2.260;2023-04-01T16:33:17;10.20;99.90
59307;DHT22;47983;53.016;-2.260;2023-04-01T16:35:59;10.20;99.90
59307;DHT22;47983;53.016;-2.260;2023-04-01T16:38:49;10.20;99.90
59307;DHT22;47983;53.016;-2.260;2023-04-01T16:41:31;10.20;99.90
59307;DHT22;47983;53.016;-2.260;2023-04-01T16:44:23;10.20;99.90
59307;DHT22;47983;53.016;-2.260;2023-04-01T16:46:54;10.20;99.90
59307;DHT22;47983;53.016;-2.260;2023-04-01T16:55:01;10.30;99.90
59307;DHT22;47983;53.016;-2.260;2023-04-01T16:57:45;10.30;99.90
59307;DHT22;47983;53.016;-2.260;2023-04-01T17:00:39;10.30;99.90
59307;DHT22;47983;53.016;-2.260;2023-04-01T17:03:28;10.20;99.90
59307;DHT22;47983;53.016;-2.260;2023-04-01T17:14:23;10.10;99.90
59307;DHT22;47983;53.016;-2.260;2023-04-01T17:27:41;9.80;99.90
59307;DHT22;47983;53.016;-2.260;2023-04-01T17:30:41;9.70;99.90
59307;DHT22;47983;53.016;-2.260;2023-04-01T17:33:41;9.70;99.90
59307;DHT22;47983;53.016;-2.260;2023-04-01T17:39:01;9.70;99.90
59307;DHT22;47983;53.016;-2.260;2023-04-01T17:41:42;9.60;99.90
59307;DHT22;47983;53.016;-2.260;2023-04-01T17:44:35;9.60;99.90
59307;DHT22;47983;53.016;-2.260;2023-04-01T17:47:31;9.60;99.90
59307;DHT22;47983;53.016;-2.260;2023-04-01T17:50:22;9.50;99.90
59307;DHT22;47983;53.016;-2.260;2023-04-01T17:58:34;9.50;99.90
59307;DHT22;47983;53.016;-2.260;2023-04-01T18:23:59;8.80;99.90
59307;DHT22;47983;53.016;-2.260;2023-04-01T18:26:38;9.30;99.90
59307;DHT22;47983;53.016;-2.260;2023-04-01T18:40:35;9.20;99.90
59307;DHT22;47983;53.016;-2.260;2023-04-01T18:43:38;9.20;99.90
59307;DHT22;47983;53.016;-2.260;2023-04-01T18:49:48;9.10;99.90
59307;DHT22;47983;53.016;-2.260;2023-04-01T18:52:42;9.10;99.90
59307;DHT22;47983;53.016;-2.260;2023-04-01T19:00:59;9.00;99.90
59307;DHT22;47983;53.016;-2.260;2023-04-01T19:06:55;8.90;99.90
59307;DHT22;47983;53.016;-2.260;2023-04-01T19:09:31;8.90;99.90
59307;DHT22;47983;53.016;-2.260;2023-04-01T19:14:53;8.90;99.90
59307;DHT22;47983;53.016;-2.260;2023-04-01T19:20:18;8.90;99.90
59307;DHT22;47983;53.016;-2.260;2023-04-01T19:25:38;8.90;99.90
59307;DHT22;47983;53.016;-2.260;2023-04-01T19:42:54;8.80;99.90
59307;DHT22;47983;53.016;-2.260;2023-04-01T19:45:34;8.80;99.90
59307;DHT22;47983;53.016;-2.260;2023-04-01T19:48:39;8.80;99.90
59307;DHT22;47983;53.016;-2.260;2023-04-01T20:20:07;8.70;99.90
59307;DHT22;47983;53.016;-2.260;2023-04-01T20:23:02;8.70;99.90
59307;DHT22;47983;53.016;-2.260;2023-04-01T20:25:43;8.80;99.90
59307;DHT22;47983;53.016;-2.260;2023-04-01T20:31:44;8.70;99.90
59307;DHT22;47983;53.016;-2.260;2023-04-01T20:34:22;8.80;99.90
59307;DHT22;47983;53.016;-2.260;2023-04-01T20:42:42;8.80;99.90
59307;DHT22;47983;53.016;-2.260;2023-04-01T20:48:18;8.80;99.90
59307;DHT22;47983;53.016;-2.260;2023-04-01T20:50:53;8.80;99.90
59307;DHT22;47983;53.016;-2.260;2023-04-01T20:56:02;8.80;99.90
59307;DHT22;47983;53.016;-2.260;2023-04-01T21:01:28;8.80;99.90
59307;DHT22;47983;53.016;-2.260;2023-04-01T21:04:22;8.70;99.90
59307;DHT22;47983;53.016;-2.260;2023-04-01T21:09:46;8.70;99.90
59307;DHT22;47983;53.016;-2.260;2023-04-01T21:15:03;8.70;99.90
59307;DHT22;47983;53.016;-2.260;2023-04-01T21:20:36;8.80;99.90
59307;DHT22;47983;53.016;-2.260;2023-04-01T21:32:11;8.60;99.90
59307;DHT22;47983;53.016;-2.260;2023-04-01T21:34:54;8.60;99.90
59307;DHT22;47983;53.016;-2.260;2023-04-01T21:37:37;8.60;99.90
59307;DHT22;47983;53.016;-2.260;2023-04-01T21:40:25;8.50;99.90
59307;DHT22;47983;53.016;-2.260;2023-04-01T21:46:26;8.50;99.90
59307;DHT22;47983;53.016;-2.260;2023-04-01T22:09:27;8.50;99.90
59307;DHT22;47983;53.016;-2.260;2023-04-01T22:11:38;8.40;99.90
59307;DHT22;47983;53.016;-2.260;2023-04-01T22:17:31;8.40;99.90
59307;DHT22;47983;53.016;-2.260;2023-04-01T22:25:59;8.20;99.90
59307;DHT22;47983;53.016;-2.260;2023-04-01T22:31:05;8.20;99.90
59307;DHT22;47983;53.016;-2.260;2023-04-01T22:44:44;8.20;99.90
59307;DHT22;47983;53.016;-2.260;2023-04-01T22:52:41;8.20;99.90
59307;DHT22;47983;53.016;-2.260;2023-04-01T22:55:31;8.20;99.90
59307;DHT22;47983;53.016;-2.260;2023-04-01T22:58:25;8.20;99.90
59307;DHT22;47983;53.016;-2.260;2023-04-01T23:00:59;8.20;99.90
59307;DHT22;47983;53.016;-2.260;2023-04-01T23:03:31;8.30;99.90
59307;DHT22;47983;53.016;-2.260;2023-04-01T23:06:01;8.30;99.90
59307;DHT22;47983;53.016;-2.260;2023-04-01T23:11:23;8.30;99.90
59307;DHT22;47983;53.016;-2.260;2023-04-01T23:16:51;8.30;99.90
59307;DHT22;47983;53.016;-2.260;2023-04-01T23:19:31;8.30;99.90
59307;DHT22;47983;53.016;-2.260;2023-04-01T23:30:49;8.20;99.90
59307;DHT22;47983;53.016;-2.260;2023-04-01T23:38:16;8.90;99.90
59307;DHT22;47983;53.016;-2.260;2023-04-01T23:40:48;8.30;99.90
59307;DHT22;47983;53.016;-2.260;2023-04-01T23:43:28;8.30;99.90
59307;DHT22;47983;53.016;-2.260;2023-04-01T23:46:03;8.20;99.90
59307;DHT22;47983;53.016;-2.260;2023-04-01T23:48:37;8.20;99.90
59307;DHT22;47983;53.016;-2.260;2023-04-01T23:51:14;8.20;99.90
59307;DHT22;47983;53.016;-2.260;2023-04-01T23:53:45;8.20;99.90
59307;DHT22;47983;53.016;-2.260;2023-04-01T23:56:17;8.30;99.90
59307;DHT22;47983;53.016;-2.260;2023-04-01T23:58:50;8.20;99.90
